Pecan Acres, Louisiana
Current Conditions -  °F | °C
As of 6:15 PM on Sunday 23 Nov 2014 (Local Time) from KIER Reporting Station
Clear Clear  
Wind Chill: 64°   Ceiling: Unl
Heat Index: 64°   Visibility: 10mi
Dew Point: 59°   Wind: 3mph
Humidity: 85%   Direction: 180°S
Pressure: 29.53"   Gusts: NA
Location:  31.6668°N, 92.8023°W
Report Text: KIER 240015Z AUTO 18003KT 10SM CLR 18/15 A2953 RMK AO2 T01770152
Loading
Personal Weather Stations






























Interactive Weather Map New forecast layout! Learn more

10-Day Weather Forecast

Advertisements
Track Severe Weather on mobile